Time;durP1;ratioP1;P1;durP2;ratioP2;P2;SDS_P1;SDS_P2;PMS_P1;PMS_P2;Temp;Humidity;BMP_temperature;BMP_pressure;BME280_temperature;BME280_humidity;BME280_pressure;Samples;Min_cycle;Max_cycle;Signal;HPM_P1;HPM_P2
2021/11/17 02:26:18;;;;;;;12.93;12.43;;;18.80;94.30;;;;;;5033788;28;20424;-50
2021/11/17 02:28:58;;;;;;;12.80;12.30;;;18.80;94.50;;;;;;5033202;28;20796;-50
2021/11/17 02:31:50;;;;;;;13.37;12.30;;;18.70;94.60;;;;;;5033476;28;20440;-51
2021/11/17 02:34:30;;;;;;;12.70;12.17;;;18.70;94.60;;;;;;5033325;28;20449;-51
2021/11/17 02:37:13;;;;;;;12.60;12.10;;;18.70;94.80;;;;;;5033438;28;20826;-50
2021/11/17 02:39:54;;;;;;;12.77;12.27;;;18.70;94.90;;;;;;5032895;28;20441;-50
2021/11/17 02:42:42;;;;;;;12.07;11.67;;;18.70;94.80;;;;;;5033261;28;20454;-51
2021/11/17 02:45:26;;;;;;;12.40;11.90;;;18.70;95.20;;;;;;5033314;28;20452;-50
2021/11/17 02:48:11;;;;;;;13.47;12.97;;;18.70;95.30;;;;;;5032888;28;20464;-53
2021/11/17 02:51:06;;;;;;;12.67;12.17;;;18.70;95.20;;;;;;5032580;28;20466;-51
2021/11/17 02:53:53;;;;;;;13.33;12.83;;;18.70;95.20;;;;;;5032950;28;20473;-50
2021/11/17 02:56:36;;;;;;;12.70;12.10;;;18.70;95.50;;;;;;5032912;28;20445;-50
2021/11/17 02:59:27;;;;;;;12.63;12.13;;;18.60;95.70;;;;;;5032528;28;20453;-50
2021/11/17 03:02:18;;;;;;;12.70;12.30;;;18.60;95.80;;;;;;5032830;28;20448;-50
2021/11/17 03:05:12;;;;;;;12.90;12.40;;;18.60;96.00;;;;;;5032878;28;20457;-50
2021/11/17 03:07:55;;;;;;;12.67;12.17;;;18.60;95.80;;;;;;5032251;28;20460;-50
2021/11/17 03:10:52;;;;;;;13.17;12.60;;;18.70;95.70;;;;;;5012706;28;20454;-50
2021/11/17 03:13:38;;;;;;;13.63;13.13;;;18.60;95.80;;;;;;5012777;28;20474;-50
2021/11/17 03:16:20;;;;;;;12.60;12.20;;;18.50;96.00;;;;;;5012814;28;20468;-50
2021/11/17 03:19:03;;;;;;;13.10;12.60;;;18.60;96.00;;;;;;5026242;28;20461;-50
2021/11/17 03:21:49;;;;;;;12.50;12.10;;;18.60;96.40;;;;;;5032478;28;20447;-50
2021/11/17 03:24:29;;;;;;;13.30;12.77;;;18.50;96.50;;;;;;5032393;28;20953;-50
2021/11/17 03:27:12;;;;;;;13.20;12.70;;;18.60;96.20;;;;;;5032271;28;20500;-51
2021/11/17 03:30:10;;;;;;;12.77;12.37;;;18.60;96.00;;;;;;5012419;28;20446;-50
2021/11/17 03:32:59;;;;;;;12.60;12.20;;;18.60;96.20;;;;;;5012618;28;20494;-50
2021/11/17 03:35:45;;;;;;;12.43;11.93;;;18.60;96.00;;;;;;5009399;28;20821;-50
2021/11/17 03:38:28;;;;;;;13.20;12.70;;;18.60;96.10;;;;;;5020884;28;20475;-50
2021/11/17 03:41:15;;;;;;;12.33;11.93;;;18.60;96.10;;;;;;5031799;28;20457;-51
2021/11/17 03:44:07;;;;;;;12.37;11.87;;;18.60;96.10;;;;;;5032162;28;20494;-50
2021/11/17 03:46:52;;;;;;;12.30;11.90;;;18.60;96.20;;;;;;5031974;28;20900;-50
2021/11/17 03:49:32;;;;;;;13.30;12.70;;;18.60;96.20;;;;;;5031549;28;20449;-50
2021/11/17 03:52:24;;;;;;;13.00;12.60;;;18.70;96.20;;;;;;5032014;28;20796;-51
2021/11/17 03:55:13;;;;;;;12.80;12.27;;;18.70;96.10;;;;;;5031947;28;20440;-53
2021/11/17 03:57:53;;;;;;;13.50;13.00;;;18.70;96.00;;;;;;5031603;28;20464;-50
2021/11/17 04:00:46;;;;;;;13.67;13.17;;;18.70;96.20;;;;;;5030272;28;20440;-50
2021/11/17 04:03:45;;;;;;;12.87;12.37;;;18.70;96.50;;;;;;5031793;28;20449;-50
2021/11/17 04:06:24;;;;;;;13.37;12.87;;;18.70;96.70;;;;;;5031626;28;20441;-50
2021/11/17 04:09:03;;;;;;;12.80;12.30;;;18.60;96.80;;;;;;5031530;28;20437;-50
2021/11/17 04:11:42;;;;;;;13.13;12.70;;;18.60;97.20;;;;;;5031766;28;20437;-50
2021/11/17 04:14:27;;;;;;;13.33;12.83;;;18.60;97.20;;;;;;5031396;28;20492;-52
2021/11/17 04:17:15;;;;;;;13.67;13.27;;;18.60;97.30;;;;;;5031541;28;20851;-50
2021/11/17 04:19:53;;;;;;;12.93;12.47;;;18.70;97.20;;;;;;5029013;28;20876;-50
2021/11/17 04:22:52;;;;;;;13.13;12.67;;;18.70;96.90;;;;;;5031613;28;20455;-51
2021/11/17 04:25:41;;;;;;;13.73;13.07;;;18.70;97.00;;;;;;5031315;28;20456;-50
2021/11/17 04:28:25;;;;;;;12.20;11.80;;;18.60;97.40;;;;;;5031948;28;20884;-49
2021/11/17 04:31:14;;;;;;;12.60;12.20;;;18.50;97.60;;;;;;5031261;28;20942;-49
2021/11/17 04:33:51;;;;;;;12.37;11.97;;;18.50;97.80;;;;;;5031429;28;20484;-49
2021/11/17 04:36:42;;;;;;;12.37;11.93;;;18.50;98.00;;;;;;5031097;28;20449;-49
2021/11/17 04:39:34;;;;;;;13.20;12.80;;;18.50;98.20;;;;;;5031192;28;20490;-51
2021/11/17 04:42:25;;;;;;;12.97;12.53;;;18.50;98.40;;;;;;5031376;28;20449;-49
2021/11/17 04:45:15;;;;;;;13.50;13.00;;;18.50;98.90;;;;;;5031135;28;20446;-49
2021/11/17 04:48:03;;;;;;;12.77;12.37;;;18.50;99.10;;;;;;5031249;28;20457;-49
2021/11/17 04:50:57;;;;;;;12.10;11.70;;;18.50;99.20;;;;;;5030995;28;20453;-50
2021/11/17 04:53:41;;;;;;;13.80;13.30;;;18.60;99.10;;;;;;5029021;28;20477;-49
2021/11/17 04:56:25;;;;;;;13.63;13.13;;;18.50;99.40;;;;;;5030964;28;20445;-51
2021/11/17 04:59:10;;;;;;;12.50;12.10;;;18.50;99.40;;;;;;5031002;28;20831;-50
2021/11/17 05:01:58;;;;;;;13.77;13.27;;;18.50;99.80;;;;;;5031280;28;20448;-49
2021/11/17 05:04:44;;;;;;;14.37;13.77;;;18.50;99.90;;;;;;5030943;28;20449;-51
2021/11/17 05:07:22;;;;;;;13.97;13.57;;;18.40;99.90;;;;;;5030838;28;20479;-50
2021/11/17 05:09:58;;;;;;;14.60;13.80;;;18.50;99.90;;;;;;5030945;28;20448;-49
2021/11/17 05:12:38;;;;;;;14.00;13.50;;;18.50;99.90;;;;;;5032582;28;20440;-52
2021/11/17 05:15:16;;;;;;;13.10;12.60;;;18.50;99.90;;;;;;5015073;28;20533;-52
2021/11/17 05:17:51;;;;;;;14.33;13.83;;;18.50;99.90;;;;;;5014985;28;20462;-52
2021/11/17 05:20:32;;;;;;;14.67;14.17;;;18.50;99.90;;;;;;5009627;28;20460;-54
2021/11/17 05:23:12;;;;;;;14.30;13.80;;;18.50;99.90;;;;;;5004920;28;20457;-51
2021/11/17 05:25:52;;;;;;;15.00;14.40;;;18.70;99.90;;;;;;5022630;28;20449;-49
2021/11/17 05:28:31;;;;;;;17.03;15.73;;;18.70;99.70;;;;;;5022399;28;20484;-50
2021/11/17 05:31:17;;;;;;;17.20;15.50;;;18.70;99.90;;;;;;5022620;28;20449;-52
2021/11/17 05:33:57;;;;;;;15.70;14.23;;;18.80;99.90;;;;;;5022436;28;20487;-52
2021/11/17 05:36:35;;;;;;;15.40;12.67;;;18.90;99.90;;;;;;5022649;28;20591;-51
2021/11/17 05:39:16;;;;;;;19.27;12.30;;;19.00;99.90;;;;;;5022704;28;21305;-50
2021/11/17 05:41:57;;;;;;;14.30;10.73;;;19.10;99.90;;;;;;5022669;28;20455;-48
2021/11/17 05:44:37;;;;;;;18.40;11.03;;;19.10;99.90;;;;;;5022115;28;20461;-50
2021/11/17 05:47:16;;;;;;;13.27;11.23;;;19.00;99.90;;;;;;5022076;28;20481;-53
2021/11/17 05:49:54;;;;;;;14.30;11.30;;;19.00;99.90;;;;;;5022052;28;20448;-50
2021/11/17 05:52:35;;;;;;;15.83;13.57;;;19.00;99.90;;;;;;5022369;28;20459;-50
2021/11/17 05:55:19;;;;;;;15.60;14.37;;;19.80;99.90;;;;;;5022397;28;20480;-51
2021/11/17 05:57:59;;;;;;;15.50;13.87;;;20.30;99.90;;;;;;5022162;28;20465;-53
2021/11/17 06:00:56;;;;;;;16.70;15.40;;;20.70;99.90;;;;;;5021884;28;20950;-51
2021/11/17 06:03:35;;;;;;;16.47;15.10;;;20.90;99.90;;;;;;4998645;28;20902;-50
2021/11/17 06:06:02;;;;;;;15.17;14.10;;;21.10;99.90;;;;;;5021869;28;20477;-51
2021/11/17 06:08:28;;;;;;;16.50;15.30;;;21.30;99.90;;;;;;5021872;28;21068;-50
2021/11/17 06:10:59;;;;;;;16.30;14.60;;;21.10;99.90;;;;;;5021828;28;20453;-51
2021/11/17 06:13:27;;;;;;;14.60;13.70;;;21.10;99.90;;;;;;5021692;28;20488;-51
2021/11/17 06:15:55;;;;;;;15.43;14.43;;;21.10;99.90;;;;;;5021920;28;20449;-50
2021/11/17 06:18:24;;;;;;;15.60;14.40;;;21.10;99.90;;;;;;5021624;28;20477;-51
2021/11/17 06:20:52;;;;;;;15.57;14.47;;;21.10;99.90;;;;;;5021441;28;20456;-50
2021/11/17 06:23:23;;;;;;;14.40;13.70;;;21.10;99.90;;;;;;5020719;28;20936;-52
2021/11/17 06:25:51;;;;;;;15.00;14.00;;;21.10;99.90;;;;;;5021773;28;20452;-49
2021/11/17 06:28:23;;;;;;;15.00;14.10;;;21.10;99.90;;;;;;5021668;28;20492;-53
2021/11/17 06:30:51;;;;;;;15.63;14.37;;;21.10;99.90;;;;;;5021543;28;21028;-53
2021/11/17 06:33:18;;;;;;;16.93;15.73;;;21.30;99.90;;;;;;5021111;28;20485;-53
2021/11/17 06:35:45;;;;;;;13.70;13.10;;;21.30;99.90;;;;;;5021352;28;21244;-51
2021/11/17 06:38:13;;;;;;;14.70;13.73;;;21.40;99.90;;;;;;5021181;28;20999;-52
2021/11/17 06:40:42;;;;;;;13.03;12.33;;;21.40;99.90;;;;;;5021025;28;20957;-55
2021/11/17 06:43:10;;;;;;;12.93;12.23;;;21.40;99.90;;;;;;5021161;28;20822;-53
2021/11/17 06:45:40;;;;;;;13.67;12.77;;;21.40;99.90;;;;;;5021002;28;20568;-53
2021/11/17 06:48:09;;;;;;;12.67;11.97;;;21.30;99.90;;;;;;5021195;28;20473;-55
2021/11/17 06:50:39;;;;;;;12.67;11.67;;;21.30;99.90;;;;;;5020868;28;20450;-50
2021/11/17 06:53:08;;;;;;;12.60;11.60;;;21.30;99.90;;;;;;5020940;28;20445;-50
2021/11/17 06:55:35;;;;;;;13.53;12.63;;;21.30;99.90;;;;;;5020780;28;20951;-52
2021/11/17 06:58:02;;;;;;;12.60;11.77;;;21.20;99.90;;;;;;5020853;28;20469;-54
2021/11/17 07:00:32;;;;;;;12.80;12.20;;;21.10;99.90;;;;;;5020656;28;20779;-51
2021/11/17 07:03:01;;;;;;;13.00;12.20;;;21.10;99.90;;;;;;5020858;28;20449;-54
2021/11/17 07:05:28;;;;;;;12.80;12.20;;;21.00;99.90;;;;;;5020712;28;20456;-51
2021/11/17 07:07:57;;;;;;;11.90;11.50;;;21.00;99.90;;;;;;5020660;28;20473;-55
2021/11/17 07:10:26;;;;;;;12.53;11.97;;;21.00;99.90;;;;;;5020700;28;20464;-51
2021/11/17 07:12:54;;;;;;;12.17;11.67;;;20.90;99.90;;;;;;5020770;28;21141;-52
2021/11/17 07:15:22;;;;;;;15.10;14.20;;;20.80;99.90;;;;;;5020543;28;20488;-49
2021/11/17 07:17:49;;;;;;;12.33;11.73;;;20.80;99.90;;;;;;5020302;28;20468;-49
2021/11/17 07:20:17;;;;;;;11.67;11.27;;;20.80;99.90;;;;;;5020207;28;20452;-54
2021/11/17 07:22:45;;;;;;;12.50;12.00;;;20.80;99.90;;;;;;5020394;28;21015;-55
2021/11/17 07:25:15;;;;;;;13.00;12.40;;;20.70;99.90;;;;;;5020375;28;20835;-53
2021/11/17 07:27:43;;;;;;;12.53;11.97;;;20.70;99.90;;;;;;5019961;28;20697;-53
2021/11/17 07:30:13;;;;;;;13.47;12.80;;;20.70;99.90;;;;;;5019975;28;20970;-53
2021/11/17 07:32:40;;;;;;;12.63;12.03;;;20.70;99.90;;;;;;5020304;28;20485;-54
2021/11/17 07:35:09;;;;;;;13.20;12.70;;;20.70;99.90;;;;;;5019308;28;20516;-55
2021/11/17 07:37:39;;;;;;;13.23;12.73;;;20.70;99.90;;;;;;5019783;28;20791;-54
2021/11/17 07:40:09;;;;;;;13.47;12.87;;;20.70;99.90;;;;;;5019794;28;20541;-53
2021/11/17 07:42:37;;;;;;;13.40;12.70;;;20.70;99.90;;;;;;5020105;28;20454;-52
2021/11/17 07:45:05;;;;;;;14.30;13.60;;;20.70;99.90;;;;;;5019982;28;20511;-52
2021/11/17 07:47:32;;;;;;;13.40;12.70;;;20.60;99.90;;;;;;5019710;28;20477;-52
2021/11/17 07:50:02;;;;;;;13.30;12.80;;;20.60;99.90;;;;;;5019814;28;20445;-51
2021/11/17 07:52:30;;;;;;;13.10;12.50;;;20.60;99.90;;;;;;5019973;28;20460;-54
2021/11/17 07:54:58;;;;;;;13.63;13.00;;;20.60;99.90;;;;;;5019773;28;20504;-51
2021/11/17 07:57:26;;;;;;;12.57;12.00;;;20.60;99.90;;;;;;5019581;28;20479;-54
2021/11/17 07:59:53;;;;;;;12.70;12.20;;;20.50;99.90;;;;;;5019363;28;20457;-51
2021/11/17 08:02:20;;;;;;;13.73;13.13;;;20.50;99.90;;;;;;5019808;28;20452;-51
2021/11/17 08:04:48;;;;;;;12.67;12.07;;;20.50;99.90;;;;;;5019564;28;20449;-52
2021/11/17 08:07:19;;;;;;;13.97;13.50;;;20.40;99.90;;;;;;5019748;28;20469;-49
2021/11/17 08:09:47;;;;;;;13.27;12.77;;;20.30;99.90;;;;;;5019427;28;20916;-52
2021/11/17 08:12:15;;;;;;;12.93;12.53;;;20.30;99.90;;;;;;5000199;28;20577;-49
2021/11/17 08:14:42;;;;;;;14.27;13.77;;;20.30;99.90;;;;;;5006568;28;20487;-49
2021/11/17 08:17:09;;;;;;;12.70;12.20;;;20.30;99.90;;;;;;5019640;28;20471;-50
2021/11/17 08:19:36;;;;;;;13.40;12.90;;;20.30;99.90;;;;;;5019472;28;20859;-51
2021/11/17 08:22:07;;;;;;;13.00;12.50;;;20.20;99.90;;;;;;5019514;28;20452;-52
2021/11/17 08:24:36;;;;;;;13.93;13.33;;;20.30;99.90;;;;;;5019225;28;20449;-51
2021/11/17 08:27:05;;;;;;;14.37;13.73;;;20.30;99.90;;;;;;5019513;28;21154;-50
2021/11/17 08:29:34;;;;;;;13.57;12.97;;;20.20;99.90;;;;;;5019430;28;20446;-52
2021/11/17 08:32:01;;;;;;;13.50;13.03;;;20.20;99.90;;;;;;5019551;28;20598;-52
2021/11/17 08:34:30;;;;;;;12.20;11.70;;;20.20;99.90;;;;;;5019220;28;20503;-55
2021/11/17 08:36:57;;;;;;;12.47;12.07;;;20.20;99.90;;;;;;5019311;28;21017;-51
2021/11/17 08:39:25;;;;;;;12.47;11.97;;;20.20;99.90;;;;;;5019121;28;20449;-49
2021/11/17 08:41:53;;;;;;;12.27;11.80;;;20.20;99.90;;;;;;5019184;28;20459;-56
2021/11/17 08:44:19;;;;;;;12.47;11.97;;;20.20;99.90;;;;;;5019333;28;20445;-56
2021/11/17 08:46:47;;;;;;;12.30;11.90;;;20.20;99.90;;;;;;5021491;28;20476;-51
2021/11/17 08:49:14;;;;;;;12.60;12.10;;;20.20;99.90;;;;;;5023264;28;20460;-52
2021/11/17 08:51:41;;;;;;;13.83;13.33;;;20.30;99.90;;;;;;5023172;28;20448;-52
2021/11/17 08:54:08;;;;;;;12.93;12.43;;;20.30;99.90;;;;;;5023001;28;20488;-50
2021/11/17 08:56:36;;;;;;;12.50;11.90;;;20.20;99.90;;;;;;5023006;28;20476;-52
2021/11/17 08:59:04;;;;;;;12.80;12.30;;;20.20;99.90;;;;;;5023007;28;20538;-50
2021/11/17 09:01:33;;;;;;;12.00;11.60;;;20.20;99.90;;;;;;5023140;28;20559;-56
2021/11/17 09:04:05;;;;;;;11.70;11.30;;;20.20;99.90;;;;;;5022943;28;20503;-52
2021/11/17 09:06:33;;;;;;;12.90;12.30;;;20.20;99.90;;;;;;5022964;28;20528;-52
2021/11/17 09:09:04;;;;;;;12.60;12.10;;;20.10;99.90;;;;;;5022766;28;20448;-49
2021/11/17 09:11:34;;;;;;;12.20;11.80;;;20.20;99.90;;;;;;5022745;28;20453;-52
2021/11/17 09:14:02;;;;;;;12.37;11.97;;;20.20;99.90;;;;;;5022835;28;20550;-49
2021/11/17 09:16:30;;;;;;;11.93;11.47;;;20.20;99.90;;;;;;5022750;28;20475;-50
2021/11/17 09:18:58;;;;;;;11.30;11.00;;;20.20;99.90;;;;;;5022578;28;20650;-50
2021/11/17 09:21:27;;;;;;;12.43;11.93;;;20.20;99.90;;;;;;5022843;28;20452;-52
2021/11/17 09:23:54;;;;;;;11.83;11.53;;;20.10;99.90;;;;;;5022628;28;20457;-50
2021/11/17 09:26:23;;;;;;;12.60;12.00;;;20.10;99.90;;;;;;5022532;28;20558;-50
2021/11/17 09:28:50;;;;;;;12.90;12.50;;;20.20;99.90;;;;;;5022312;28;20456;-53
2021/11/17 09:31:17;;;;;;;12.03;11.63;;;20.20;99.90;;;;;;5022563;28;20964;-54
2021/11/17 09:33:46;;;;;;;13.13;12.73;;;21.10;99.90;;;;;;5022252;28;20954;-51
2021/11/17 09:36:15;;;;;;;12.60;12.20;;;21.60;98.50;;;;;;5022554;28;20898;-51
2021/11/17 09:38:45;;;;;;;13.17;12.67;;;22.10;97.40;;;;;;5022437;28;20453;-50
2021/11/17 09:41:15;;;;;;;13.30;12.90;;;23.00;95.10;;;;;;5022503;28;20929;-56
2021/11/17 09:43:44;;;;;;;14.03;13.53;;;23.80;91.30;;;;;;5022340;28;20453;-57
2021/11/17 09:46:13;;;;;;;14.30;13.60;;;24.20;85.70;;;;;;5022492;28;20958;-54
2021/11/17 09:48:43;;;;;;;13.40;12.90;;;24.50;82.10;;;;;;5022130;28;20451;-54
2021/11/17 09:51:13;;;;;;;13.97;13.47;;;24.60;79.50;;;;;;5022147;28;20472;-53
2021/11/17 09:53:49;;;;;;;14.03;13.60;;;24.60;77.60;;;;;;5022073;28;20913;-54
2021/11/17 09:56:18;;;;;;;13.90;13.40;;;24.70;76.60;;;;;;5022123;28;20569;-51
2021/11/17 09:58:48;;;;;;;14.77;14.17;;;24.60;75.40;;;;;;5020985;28;20670;-54
2021/11/17 10:01:19;;;;;;;13.80;13.40;;;24.60;74.90;;;;;;5022501;28;20467;-53
2021/11/17 10:03:51;;;;;;;14.57;14.00;;;24.60;73.90;;;;;;5022084;28;20457;-56
2021/11/17 10:06:47;;;;;;;13.83;13.10;;;24.40;71.10;;;;;;5022123;28;20458;-52
2021/11/17 10:09:35;;;;;;;13.47;12.97;;;24.60;72.20;;;;;;5021721;28;20538;-51
2021/11/17 10:12:25;;;;;;;13.73;13.23;;;25.20;69.70;;;;;;5021990;28;20547;-51
2021/11/17 10:15:02;;;;;;;13.10;12.70;;;25.40;67.40;;;;;;5002170;28;20498;-54
2021/11/17 10:17:31;;;;;;;14.10;13.70;;;25.40;66.50;;;;;;5004040;28;20592;-53
2021/11/17 10:20:08;;;;;;;13.63;13.23;;;25.30;66.20;;;;;;5021443;28;20981;-50
2021/11/17 10:22:35;;;;;;;14.57;14.07;;;25.20;65.90;;;;;;5021706;28;20817;-53
2021/11/17 10:25:09;;;;;;;13.27;12.73;;;25.20;65.80;;;;;;5021717;28;20450;-53
2021/11/17 10:27:37;;;;;;;13.13;12.73;;;25.20;65.40;;;;;;5022349;28;20940;-60
2021/11/17 10:30:08;;;;;;;14.50;14.00;;;25.20;65.20;;;;;;5021365;28;20453;-56
2021/11/17 10:32:41;;;;;;;15.43;14.93;;;25.60;64.40;;;;;;5021194;28;20449;-57
2021/11/17 10:35:15;;;;;;;15.37;14.77;;;26.00;62.40;;;;;;5021453;28;20491;-55
2021/11/17 10:37:44;;;;;;;14.43;14.00;;;26.00;61.30;;;;;;5021239;28;20484;-57
2021/11/17 10:40:17;;;;;;;15.13;14.63;;;26.00;61.10;;;;;;5021395;28;20453;-58
2021/11/17 10:42:44;;;;;;;14.20;13.70;;;25.90;60.90;;;;;;5021187;28;20449;-56
2021/11/17 10:45:32;;;;;;;13.40;13.00;;;25.80;61.10;;;;;;5021423;28;20455;-55
2021/11/17 10:47:59;;;;;;;14.03;13.63;;;25.70;61.20;;;;;;5021087;28;21140;-57
2021/11/17 10:50:29;;;;;;;13.57;13.17;;;25.60;61.30;;;;;;5021042;28;20472;-55
2021/11/17 10:53:00;;;;;;;14.73;14.23;;;25.50;61.50;;;;;;5020581;28;20969;-53
2021/11/17 10:55:32;;;;;;;14.63;14.03;;;25.50;61.80;;;;;;5021181;28;20484;-57
2021/11/17 10:58:00;;;;;;;15.30;14.80;;;25.80;61.40;;;;;;5020880;28;20982;-56
2021/11/17 11:00:32;;;;;;;13.65;13.25;;;26.20;59.80;;;;;;5020741;28;20519;-53
2021/11/17 11:03:00;;;;;;;15.00;14.57;;;26.30;58.90;;;;;;5020974;28;20619;-58
2021/11/17 11:05:31;;;;;;;15.07;14.57;;;26.30;58.60;;;;;;5020910;28;20445;-54
2021/11/17 11:08:02;;;;;;;13.53;13.13;;;26.30;58.50;;;;;;5020876;28;20596;-54
2021/11/17 11:10:34;;;;;;;14.90;14.40;;;26.20;58.40;;;;;;5020663;28;21000;-53
2021/11/17 11:13:03;;;;;;;14.90;14.40;;;26.20;58.20;;;;;;5020870;28;20453;-56
2021/11/17 11:15:35;;;;;;;15.83;15.13;;;26.20;58.10;;;;;;5020611;28;20489;-57
2021/11/17 11:18:36;;;;;;;16.00;15.20;;;26.00;57.90;;;;;;5020585;28;20465;-55
2021/11/17 11:21:03;;;;;;;15.83;15.33;;;25.90;58.40;;;;;;5020427;28;20483;-54
2021/11/17 11:23:31;;;;;;;14.67;14.07;;;25.90;58.90;;;;;;5020387;28;20463;-57
2021/11/17 11:26:21;;;;;;;13.80;13.30;;;26.00;59.10;;;;;;5020702;28;20898;-53
2021/11/17 11:29:19;;;;;;;14.53;14.03;;;26.50;58.60;;;;;;5020464;28;20568;-51
2021/11/17 11:31:48;;;;;;;13.23;12.83;;;26.80;57.50;;;;;;5020217;28;20445;-51
2021/11/17 11:34:41;;;;;;;14.27;13.77;;;26.80;57.10;;;;;;5020568;28;21168;-57
2021/11/17 11:37:11;;;;;;;13.93;13.53;;;26.70;56.80;;;;;;5020362;28;20819;-51
2021/11/17 11:39:48;;;;;;;13.90;13.40;;;26.70;56.70;;;;;;5020158;28;20460;-54
2021/11/17 11:42:25;;;;;;;14.23;13.63;;;26.60;56.70;;;;;;5020079;28;20460;-52
2021/11/17 11:44:53;;;;;;;14.20;13.70;;;26.50;56.60;;;;;;5020217;28;21018;-54
2021/11/17 11:47:56;;;;;;;14.70;14.20;;;26.40;56.60;;;;;;5020315;28;20494;-56
2021/11/17 11:50:56;;;;;;;14.10;13.50;;;26.20;57.30;;;;;;5019951;28;20455;-55
2021/11/17 11:53:28;;;;;;;15.87;15.37;;;26.50;57.40;;;;;;5019650;28;20922;-58
2021/11/17 11:56:02;;;;;;;13.40;13.00;;;26.90;56.50;;;;;;5019881;28;20485;-56
2021/11/17 11:58:39;;;;;;;14.80;14.20;;;27.10;55.80;;;;;;5019762;28;20472;-53
2021/11/17 12:01:08;;;;;;;13.60;13.20;;;27.00;55.60;;;;;;5019666;28;20456;-56
2021/11/17 12:03:38;;;;;;;15.40;14.90;;;26.90;55.60;;;;;;5019968;28;21322;-52
2021/11/17 12:06:08;;;;;;;15.03;14.53;;;26.90;55.50;;;;;;5019994;28;20479;-57
2021/11/17 12:08:56;;;;;;;14.70;14.20;;;27.10;54.90;;;;;;5019642;28;20916;-53
2021/11/17 12:11:26;;;;;;;17.17;16.57;;;27.10;55.00;;;;;;5019620;28;20448;-53
2021/11/17 12:14:04;;;;;;;17.90;17.20;;;27.10;54.80;;;;;;5019683;28;20455;-52
2021/11/17 12:16:35;;;;;;;16.87;16.27;;;27.10;54.80;;;;;;5019644;28;20496;-54
2021/11/17 12:19:05;;;;;;;16.83;16.10;;;27.00;54.80;;;;;;5019160;28;20453;-53
2021/11/17 12:21:51;;;;;;;16.03;15.43;;;26.90;54.90;;;;;;5019126;28;20887;-54
2021/11/17 12:24:25;;;;;;;16.33;15.73;;;26.80;54.90;;;;;;5019554;28;20453;-53
2021/11/17 12:27:00;;;;;;;16.10;15.60;;;26.80;55.10;;;;;;5019648;28;20490;-53
2021/11/17 12:29:33;;;;;;;15.27;14.77;;;26.70;55.20;;;;;;5019344;28;20494;-57
2021/11/17 12:32:05;;;;;;;16.27;15.57;;;26.50;55.30;;;;;;5019361;28;20449;-58
2021/11/17 12:34:35;;;;;;;16.67;16.00;;;26.50;55.40;;;;;;5019753;28;20832;-55
2021/11/17 12:37:04;;;;;;;14.90;14.20;;;26.40;55.70;;;;;;5019151;28;20492;-56
2021/11/17 12:39:34;;;;;;;15.87;15.27;;;26.70;55.60;;;;;;5018986;28;20449;-53
2021/11/17 12:42:04;;;;;;;15.33;14.83;;;27.00;54.80;;;;;;5019142;28;20953;-53
2021/11/17 12:44:34;;;;;;;15.17;14.67;;;27.10;54.40;;;;;;5019616;28;20447;-52
2021/11/17 12:47:07;;;;;;;14.63;14.03;;;27.10;54.30;;;;;;5019434;28;20460;-54
2021/11/17 12:49:37;;;;;;;15.33;14.83;;;27.10;54.20;;;;;;5019055;28;20457;-50
2021/11/17 12:52:08;;;;;;;15.63;15.13;;;27.10;54.00;;;;;;5019153;28;20453;-52
2021/11/17 12:54:41;;;;;;;15.73;15.23;;;26.90;54.10;;;;;;5019139;28;20448;-51
2021/11/17 12:57:13;;;;;;;14.93;14.43;;;26.80;54.30;;;;;;5019191;28;20488;-51
2021/11/17 12:59:44;;;;;;;14.57;14.07;;;26.70;54.50;;;;;;5019018;28;20852;-53
2021/11/17 13:02:47;;;;;;;17.17;16.47;;;26.80;54.80;;;;;;5018738;28;20460;-51
2021/11/17 13:05:22;;;;;;;16.10;15.60;;;27.20;54.30;;;;;;5019146;28;20793;-54
2021/11/17 13:07:51;;;;;;;16.13;15.60;;;27.50;53.20;;;;;;5018927;28;20473;-56
2021/11/17 13:10:29;;;;;;;15.50;15.00;;;27.40;52.90;;;;;;5018786;28;20472;-53
2021/11/17 13:13:03;;;;;;;15.63;14.93;;;27.30;52.90;;;;;;5019157;28;20448;-53
2021/11/17 13:15:40;;;;;;;14.70;14.20;;;27.20;53.20;;;;;;5019113;28;20488;-52
2021/11/17 13:18:09;;;;;;;15.83;15.13;;;27.20;53.30;;;;;;5019133;28;20479;-53
2021/11/17 13:20:45;;;;;;;16.00;15.50;;;27.10;53.40;;;;;;5018674;28;20519;-52
2021/11/17 13:23:42;;;;;;;15.50;15.00;;;27.10;53.70;;;;;;5019165;28;20480;-51
2021/11/17 13:26:26;;;;;;;16.50;15.80;;;27.00;53.80;;;;;;5018871;28;20445;-51
2021/11/17 13:28:53;;;;;;;17.03;16.33;;;26.80;54.60;;;;;;5018948;28;20480;-53
2021/11/17 13:31:31;;;;;;;16.47;15.80;;;26.80;54.90;;;;;;5019022;28;20456;-52
2021/11/17 13:33:59;;;;;;;15.77;15.07;;;26.70;55.10;;;;;;5021142;28;20457;-52
2021/11/17 13:36:43;;;;;;;16.03;15.43;;;27.00;56.10;;;;;;5022289;28;20493;-53
2021/11/17 13:39:11;;;;;;;16.40;15.70;;;27.50;55.70;;;;;;5021624;28;20466;-55
2021/11/17 13:41:44;;;;;;;16.40;15.70;;;27.70;55.00;;;;;;5022218;28;20449;-52
2021/11/17 13:44:12;;;;;;;16.30;15.70;;;27.70;54.70;;;;;;5022540;28;20317;-54
2021/11/17 13:46:56;;;;;;;16.17;15.57;;;27.70;55.70;;;;;;5022167;28;20472;-51
2021/11/17 13:49:23;;;;;;;16.20;15.60;;;27.60;56.20;;;;;;5022187;28;20453;-54
2021/11/17 13:51:50;;;;;;;17.10;16.40;;;27.50;56.10;;;;;;5022409;28;20456;-54
2021/11/17 13:54:17;;;;;;;17.80;17.03;;;27.40;56.20;;;;;;5022300;28;20487;-57
2021/11/17 13:56:44;;;;;;;16.57;15.97;;;27.40;56.20;;;;;;5022141;28;21004;-52
2021/11/17 13:59:11;;;;;;;16.10;15.50;;;27.30;56.20;;;;;;5021858;28;20455;-53
2021/11/17 14:01:38;;;;;;;18.10;17.40;;;27.20;56.40;;;;;;5022008;28;20457;-51
2021/11/17 14:04:06;;;;;;;14.97;14.37;;;27.10;56.70;;;;;;5022063;28;20456;-54
2021/11/17 14:06:33;;;;;;;15.33;14.83;;;27.00;56.70;;;;;;5021970;28;20469;-51
2021/11/17 14:09:00;;;;;;;15.70;15.03;;;26.90;57.00;;;;;;5021878;28;20448;-55
2021/11/17 14:11:29;;;;;;;15.40;14.80;;;27.10;57.70;;;;;;5021516;28;20796;-54
2021/11/17 14:13:56;;;;;;;15.67;15.00;;;27.50;57.10;;;;;;5021759;28;20485;-54
2021/11/17 14:16:22;;;;;;;15.60;14.90;;;27.50;56.10;;;;;;5021675;28;20509;-52
2021/11/17 14:18:50;;;;;;;14.63;14.03;;;27.40;56.20;;;;;;5022268;28;20452;-54
2021/11/17 14:21:19;;;;;;;29.97;27.40;;;27.40;56.20;;;;;;5022940;28;21022;-62
2021/11/17 14:23:45;;;;;;;16.27;15.53;;;26.80;51.80;;;;;;5022137;28;20928;-49
2021/11/17 14:26:14;;;;;;;16.47;15.77;;;26.70;56.30;;;;;;5021252;28;20493;-51
2021/11/17 14:28:46;;;;;;;15.57;14.80;;;26.80;56.50;;;;;;5021653;28;20472;-53
2021/11/17 14:31:16;;;;;;;15.87;14.77;;;26.90;56.90;;;;;;5021291;28;20457;-54
2021/11/17 14:33:47;;;;;;;16.40;15.77;;;26.80;56.90;;;;;;5021460;28;20449;-55
2021/11/17 14:36:14;;;;;;;15.87;15.27;;;26.80;56.80;;;;;;5021159;28;20578;-53
2021/11/17 14:38:43;;;;;;;15.90;15.30;;;26.70;57.00;;;;;;5021126;28;20452;-51
2021/11/17 14:41:11;;;;;;;16.73;16.03;;;26.60;57.00;;;;;;5021098;28;20456;-52
2021/11/17 14:43:39;;;;;;;15.50;14.80;;;26.60;57.10;;;;;;5020833;28;20458;-52
2021/11/17 14:46:05;;;;;;;15.37;14.77;;;26.50;57.40;;;;;;5021232;28;20449;-50
2021/11/17 14:48:33;;;;;;;14.67;14.00;;;26.40;57.50;;;;;;5020858;28;20472;-54
2021/11/17 14:51:00;;;;;;;13.83;13.33;;;26.30;57.90;;;;;;5021052;28;20535;-54
2021/11/17 14:53:27;;;;;;;14.90;14.30;;;26.20;58.10;;;;;;5020967;28;20456;-51
2021/11/17 14:55:55;;;;;;;14.47;13.80;;;26.10;58.20;;;;;;5021032;28;20484;-51
2021/11/17 14:58:22;;;;;;;15.40;14.90;;;26.00;58.50;;;;;;5021053;28;20920;-51
2021/11/17 15:00:52;;;;;;;17.67;16.87;;;25.90;58.80;;;;;;5020903;28;20453;-52
2021/11/17 15:03:20;;;;;;;14.80;14.30;;;25.80;59.10;;;;;;5020914;28;20838;-51
2021/11/17 15:05:47;;;;;;;15.63;15.03;;;25.70;59.30;;;;;;5020711;28;20463;-49
2021/11/17 15:08:14;;;;;;;15.57;14.97;;;25.70;59.60;;;;;;5020660;28;20469;-52
2021/11/17 15:10:41;;;;;;;15.27;14.67;;;25.50;59.70;;;;;;5020459;28;20453;-52
2021/11/17 15:13:10;;;;;;;16.17;15.57;;;25.50;60.00;;;;;;5020751;28;20449;-50
2021/11/17 15:15:39;;;;;;;15.67;14.97;;;25.40;60.30;;;;;;5020729;28;21058;-52
2021/11/17 15:18:06;;;;;;;15.53;14.60;;;25.30;60.60;;;;;;5020724;28;20476;-53
2021/11/17 15:20:33;;;;;;;15.57;14.97;;;25.20;61.20;;;;;;5020221;28;20452;-54
2021/11/17 15:23:01;;;;;;;14.97;14.47;;;25.20;61.10;;;;;;5020657;28;20448;-54
2021/11/17 15:25:32;;;;;;;15.40;14.80;;;25.10;61.30;;;;;;5020495;28;20472;-51
2021/11/17 15:28:03;;;;;;;14.30;13.80;;;25.10;61.50;;;;;;5020209;28;20559;-53
2021/11/17 15:30:34;;;;;;;15.47;14.80;;;25.00;61.80;;;;;;5020076;28;20950;-49